Accueil
METAR-TAF:

METAR-TAF

Aéroports :

Sunlight Mountain, Colorado, États-Unis

latitude: 39-25-32N, longitude: 107-22-45W, altitude: 3232 m

Observation

Le bulletin a été fait il y a 26 minutes, à 12:25 UTC
Vent 10 kt de sud-ouest avec des rafales jusqu'à 17 kt, variant entre sud et ouest/sud-ouest
Température -8°C
Humidité 79%
Pression 1016 hPa
Visibilité: 16.1 km
Nuages épars à une hauteur de 3800 ft
Nuages fragmentés à une hauteur de 4800 ft
Ciel couvert à une hauteur de 6000 ft

METAR: K5SM 041225Z AUTO 22010G17KT 180V240 10SM SCT038 BKN048 OVC060 M08/M11 A3000 RMK AO2

Heure: 06:51 (12:51 UTC)


TAF: absent

Observations et prévisions météorologiques de plus de 4000 aéroports (messages METAR et TAF).

Les stations disponibles sont représentées par des disques jaunes et rouges sur la carte.

Passer la souris dessus pour voir le nom de la station.

Cliquer dessus pour voir les observations et prévisions météorologiques.

Pour changer de carte: cliquez sur les boutons verts avec une croix noire pour zoomer, sur le bouton vert avec un tiret pour effectuer un zoom arrière, ou sur les flèches vertes pour les cartes adjacentes.


METAR-TAF: